createdAt,value
2019-05-13T00:00:15.652Z,97.30
2019-05-13T00:02:44.155Z,97.60
2019-05-13T00:05:14.687Z,97.90
2019-05-13T00:07:43.798Z,98.10
2019-05-13T00:10:14.617Z,97.00
2019-05-13T00:12:44.615Z,97.10
2019-05-13T00:15:14.062Z,97.10
2019-05-13T00:17:44.523Z,97.10
2019-05-13T00:20:14.043Z,96.90
2019-05-13T00:22:44.808Z,96.00
2019-05-13T00:25:14.577Z,96.20
2019-05-13T00:27:44.462Z,95.80
2019-05-13T00:30:14.530Z,94.70
2019-05-13T00:32:44.596Z,94.60
2019-05-13T00:35:14.275Z,95.40
2019-05-13T00:37:44.229Z,95.20
2019-05-13T00:40:14.435Z,95.70
2019-05-13T00:42:44.177Z,96.10
2019-05-13T00:45:14.534Z,96.60
2019-05-13T00:47:43.886Z,97.30
2019-05-13T00:50:14.335Z,97.70
2019-05-13T00:52:44.884Z,97.80
2019-05-13T00:55:14.847Z,97.80
2019-05-13T00:57:43.785Z,98.10
2019-05-13T01:00:14.021Z,98.60
2019-05-13T01:02:44.646Z,98.80
2019-05-13T01:05:14.641Z,98.90
2019-05-13T01:07:44.521Z,99.10
2019-05-13T01:10:13.616Z,99.10
2019-05-13T01:12:44.120Z,98.90
2019-05-13T01:15:13.804Z,99.00
2019-05-13T01:17:44.812Z,99.40
2019-05-13T01:20:14.507Z,99.40
2019-05-13T01:22:44.006Z,99.90
2019-05-13T01:25:14.435Z,99.80
2019-05-13T01:27:44.154Z,99.80
2019-05-13T01:30:13.560Z,99.90
2019-05-13T01:32:44.625Z,99.90
2019-05-13T01:35:14.630Z,99.90
2019-05-13T01:37:45.734Z,99.90
2019-05-13T01:40:13.571Z,99.90
2019-05-13T01:42:44.206Z,99.90
2019-05-13T01:45:13.660Z,99.90
2019-05-13T01:47:44.094Z,99.90
2019-05-13T01:50:14.319Z,99.90
2019-05-13T01:52:44.530Z,99.90
2019-05-13T01:55:14.585Z,99.90
2019-05-13T01:57:44.288Z,99.90
2019-05-13T02:00:14.174Z,99.90
2019-05-13T02:02:44.616Z,99.90
2019-05-13T02:05:14.057Z,99.90
2019-05-13T02:07:56.091Z,99.90
2019-05-13T02:10:15.350Z,99.90
2019-05-13T02:12:44.520Z,99.90
2019-05-13T02:15:14.829Z,99.90
2019-05-13T02:17:44.704Z,99.90
2019-05-13T02:20:14.823Z,99.90
2019-05-13T02:22:44.456Z,99.90
2019-05-13T02:25:13.987Z,99.90
2019-05-13T02:27:43.974Z,99.90
2019-05-13T02:30:16.147Z,99.90
2019-05-13T02:32:43.802Z,99.90
2019-05-13T02:35:13.849Z,99.90
2019-05-13T02:37:43.458Z,99.90
2019-05-13T02:40:13.498Z,99.90
2019-05-13T02:42:43.641Z,99.90
2019-05-13T02:45:13.137Z,99.90
2019-05-13T02:47:44.273Z,99.90
2019-05-13T02:50:13.096Z,99.90
2019-05-13T02:52:44.301Z,99.90
2019-05-13T02:55:12.501Z,99.90
2019-05-13T02:57:43.788Z,99.90
2019-05-13T03:00:12.978Z,99.90
2019-05-13T03:02:43.936Z,99.90
2019-05-13T03:05:13.639Z,99.90
2019-05-13T03:07:43.117Z,99.90
2019-05-13T03:10:13.584Z,99.90
2019-05-13T03:12:42.878Z,99.90
2019-05-13T03:15:13.347Z,99.90
2019-05-13T03:17:53.443Z,99.90
2019-05-13T03:20:22.861Z,99.90
2019-05-13T03:22:52.691Z,99.90
2019-05-13T03:25:22.685Z,99.90
2019-05-13T03:27:53.889Z,99.90
2019-05-13T03:30:25.267Z,99.90
2019-05-13T03:32:59.799Z,99.90
2019-05-13T03:35:26.565Z,99.90
2019-05-13T03:37:52.952Z,99.90
2019-05-13T03:40:23.106Z,99.90
2019-05-13T03:42:53.618Z,99.90
2019-05-13T03:45:24.973Z,99.90
2019-05-13T03:47:56.249Z,99.90
2019-05-13T03:50:24.659Z,99.90
2019-05-13T03:52:53.109Z,99.90
2019-05-13T03:55:23.020Z,99.90
2019-05-13T03:57:53.390Z,99.90
2019-05-13T04:00:23.475Z,99.90
2019-05-13T04:02:52.973Z,99.90
2019-05-13T04:05:23.070Z,99.90
2019-05-13T04:07:52.480Z,99.90
2019-05-13T04:10:22.815Z,99.90
2019-05-13T04:12:52.880Z,99.90
2019-05-13T04:15:23.551Z,99.90
2019-05-13T04:17:53.175Z,99.90
2019-05-13T04:20:23.315Z,99.90
2019-05-13T04:22:53.307Z,99.90
2019-05-13T04:25:23.192Z,99.90
2019-05-13T04:27:53.267Z,99.90
2019-05-13T04:30:22.625Z,99.90
2019-05-13T04:32:53.297Z,99.90
2019-05-13T04:35:23.419Z,99.90
2019-05-13T04:37:52.852Z,99.90
2019-05-13T04:40:23.205Z,99.90
2019-05-13T04:42:53.390Z,99.90
2019-05-13T04:45:23.928Z,99.90
2019-05-13T04:47:52.836Z,99.90
2019-05-13T04:50:22.788Z,99.90
2019-05-13T04:52:52.780Z,99.90
2019-05-13T04:55:22.863Z,99.90
2019-05-13T04:57:53.314Z,99.90
2019-05-13T05:00:42.685Z,99.90
2019-05-13T05:03:33.834Z,99.90
2019-05-13T05:06:07.312Z,99.90
2019-05-13T05:08:54.019Z,99.90
2019-05-13T05:11:25.521Z,99.90
2019-05-13T05:14:05.671Z,99.90
2019-05-13T05:16:41.060Z,99.90
2019-05-13T05:19:28.254Z,99.90
2019-05-13T05:22:19.344Z,99.90
2019-05-13T05:25:11.571Z,99.90
2019-05-13T05:28:03.665Z,99.90
2019-05-13T05:30:51.837Z,99.90
2019-05-13T05:33:41.057Z,99.90
2019-05-13T05:36:17.789Z,99.90
2019-05-13T05:39:01.727Z,99.90
2019-05-13T05:41:32.429Z,99.90
2019-05-13T05:44:02.406Z,99.90
2019-05-13T05:46:32.492Z,99.90
2019-05-13T05:49:04.027Z,99.90
2019-05-13T05:51:33.980Z,99.90
2019-05-13T05:54:03.787Z,99.90
2019-05-13T05:56:33.310Z,99.90
2019-05-13T05:59:03.148Z,99.90
2019-05-13T06:01:33.150Z,99.90
2019-05-13T06:04:02.182Z,99.90
2019-05-13T06:06:32.937Z,99.90
2019-05-13T06:09:01.925Z,99.90
2019-05-13T06:11:32.501Z,99.90
2019-05-13T06:14:02.298Z,99.90
2019-05-13T06:16:32.082Z,99.90
2019-05-13T06:19:01.404Z,99.90
2019-05-13T06:21:32.146Z,99.90
2019-05-13T06:24:02.728Z,99.60
2019-05-13T06:26:31.386Z,98.80
2019-05-13T06:29:02.521Z,98.20
2019-05-13T06:31:32.281Z,97.80
2019-05-13T06:34:02.063Z,97.40
2019-05-13T06:36:31.681Z,96.30
2019-05-13T06:39:02.243Z,96.10
2019-05-13T06:41:32.347Z,95.60
2019-05-13T06:44:02.363Z,95.40
2019-05-13T06:46:32.350Z,94.20
2019-05-13T06:49:02.844Z,93.10
2019-05-13T06:51:31.464Z,91.90
2019-05-13T06:54:02.334Z,91.50
2019-05-13T06:56:32.260Z,90.30
2019-05-13T06:59:01.474Z,89.20
2019-05-13T07:01:32.337Z,90.00
2019-05-13T07:04:02.374Z,90.00
2019-05-13T07:06:32.358Z,89.80
2019-05-13T07:09:01.441Z,87.80
2019-05-13T07:11:31.465Z,88.50
2019-05-13T07:14:02.334Z,87.90
2019-05-13T07:16:31.689Z,86.10
2019-05-13T07:19:02.441Z,85.50
2019-05-13T07:21:32.309Z,84.80
2019-05-13T07:24:02.301Z,84.30
2019-05-13T07:26:31.555Z,82.80
2019-05-13T07:29:03.313Z,81.40
2019-05-13T07:31:32.365Z,81.50
2019-05-13T07:34:02.321Z,81.20
2019-05-13T07:36:31.605Z,80.90
2019-05-13T07:39:01.536Z,79.50
2019-05-13T07:41:38.281Z,79.90
2019-05-13T07:44:02.400Z,79.40
2019-05-13T07:46:32.237Z,79.90
2019-05-13T07:49:02.088Z,79.60
2019-05-13T07:51:31.602Z,78.10
2019-05-13T07:54:02.233Z,76.90
2019-05-13T07:56:32.384Z,76.90
2019-05-13T07:59:01.708Z,76.90
2019-05-13T08:01:32.788Z,74.90
2019-05-13T08:04:02.199Z,76.10
2019-05-13T08:06:32.359Z,74.30
2019-05-13T08:09:01.733Z,74.30
2019-05-13T08:11:36.905Z,74.50
2019-05-13T08:14:01.807Z,74.30
2019-05-13T08:16:32.310Z,72.60
2019-05-13T08:19:01.802Z,70.90
2019-05-13T08:21:32.244Z,71.00
2019-05-13T08:24:02.774Z,69.60
2019-05-13T08:26:32.316Z,70.90
2019-05-13T08:29:04.933Z,71.00
2019-05-13T08:31:32.259Z,69.60
2019-05-13T08:34:02.471Z,68.50
2019-05-13T08:36:32.717Z,68.50
2019-05-13T08:39:02.666Z,67.20
2019-05-13T08:41:32.250Z,67.60
2019-05-13T08:44:01.715Z,67.00
2019-05-13T08:46:32.296Z,66.20
2019-05-13T08:49:03.723Z,66.00
2019-05-13T08:51:32.304Z,64.50
2019-05-13T08:54:02.377Z,63.10
2019-05-13T08:56:32.587Z,63.90
2019-05-13T08:59:01.270Z,59.20
2019-05-13T09:01:31.826Z,58.20
2019-05-13T09:04:02.312Z,58.50
2019-05-13T09:06:31.252Z,58.70
2019-05-13T09:09:01.757Z,57.50
2019-05-13T09:11:31.481Z,57.70
2019-05-13T09:14:02.336Z,55.90
2019-05-13T09:16:32.003Z,54.70
2019-05-13T09:19:03.772Z,54.00
2019-05-13T09:21:31.821Z,52.40
2019-05-13T09:24:02.141Z,53.50
2019-05-13T09:26:31.610Z,53.30
2019-05-13T09:29:01.414Z,51.70
2019-05-13T09:31:32.385Z,50.50
2019-05-13T09:34:01.427Z,51.80
2019-05-13T09:36:32.226Z,51.60
2019-05-13T09:39:02.144Z,51.90
2019-05-13T09:41:31.942Z,51.90
2019-05-13T09:44:02.116Z,49.60
2019-05-13T09:46:31.874Z,50.40
2019-05-13T09:49:14.818Z,50.10
2019-05-13T09:51:32.353Z,50.00
2019-05-13T09:54:01.422Z,48.40
2019-05-13T09:56:31.972Z,49.70
2019-05-13T09:59:01.748Z,48.80
2019-05-13T10:01:32.091Z,48.50
2019-05-13T10:04:03.034Z,50.00
2019-05-13T10:06:32.764Z,48.80
2019-05-13T10:09:02.182Z,48.90
2019-05-13T10:11:30.948Z,48.40
2019-05-13T10:14:01.830Z,49.00
2019-05-13T10:16:31.331Z,49.50
2019-05-13T10:19:01.855Z,49.60
2019-05-13T10:21:32.282Z,48.80
2019-05-13T10:23:59.944Z,47.60
2019-05-13T10:26:28.695Z,49.00
2019-05-13T10:28:58.206Z,49.30
2019-05-13T10:31:26.616Z,49.50
2019-05-13T10:33:55.165Z,48.90
2019-05-13T10:36:23.998Z,47.50
2019-05-13T10:38:52.645Z,46.90
2019-05-13T10:41:22.212Z,46.90
2019-05-13T10:43:52.132Z,48.20
2019-05-13T10:46:22.067Z,48.70
2019-05-13T10:48:52.626Z,48.50
2019-05-13T10:51:22.345Z,47.70
2019-05-13T10:53:53.510Z,46.90
2019-05-13T10:56:21.155Z,48.40
2019-05-13T10:58:53.125Z,46.30
2019-05-13T11:01:22.297Z,47.50
2019-05-13T11:03:52.478Z,46.00
2019-05-13T11:06:21.979Z,43.70
2019-05-13T11:08:52.806Z,44.20
2019-05-13T11:11:21.865Z,43.70
2019-05-13T11:13:58.037Z,43.70
2019-05-13T11:16:22.614Z,44.50
2019-05-13T11:18:51.902Z,45.40
2019-05-13T11:21:22.262Z,45.10
2019-05-13T11:23:51.843Z,46.40
2019-05-13T11:26:22.110Z,46.00
2019-05-13T11:28:52.133Z,44.40
2019-05-13T11:31:22.356Z,46.50
2019-05-13T11:33:52.040Z,46.10
2019-05-13T11:36:23.260Z,46.10
2019-05-13T11:38:53.138Z,45.80
2019-05-13T11:41:22.928Z,43.50
2019-05-13T11:44:09.237Z,43.80
2019-05-13T11:46:22.620Z,43.70
2019-05-13T11:48:51.917Z,44.40
2019-05-13T11:51:23.824Z,43.70
2019-05-13T11:53:52.460Z,42.80
2019-05-13T11:56:23.030Z,43.50
2019-05-13T11:58:53.452Z,44.20
2019-05-13T12:01:22.948Z,43.60
2019-05-13T12:03:53.122Z,44.40
2019-05-13T12:06:23.262Z,45.70
2019-05-13T12:08:55.007Z,44.50
2019-05-13T12:11:22.400Z,42.90
2019-05-13T12:13:52.749Z,43.40
2019-05-13T12:16:22.711Z,40.00
2019-05-13T12:18:52.807Z,40.50
2019-05-13T12:21:21.607Z,40.60
2019-05-13T12:23:52.468Z,41.40
2019-05-13T12:26:23.428Z,42.60
2019-05-13T12:28:53.656Z,42.80
2019-05-13T12:31:22.301Z,42.10
2019-05-13T12:33:52.333Z,42.70
2019-05-13T12:36:23.738Z,40.80
2019-05-13T12:38:53.629Z,42.40
2019-05-13T12:41:23.017Z,42.20
2019-05-13T12:43:53.820Z,41.40
2019-05-13T12:46:24.851Z,40.00
2019-05-13T12:48:51.719Z,41.10
2019-05-13T12:51:20.131Z,40.20
2019-05-13T12:53:52.641Z,40.70
2019-05-13T12:56:23.232Z,40.30
2019-05-13T12:58:51.957Z,38.90
2019-05-13T13:01:23.897Z,38.30
2019-05-13T13:03:50.977Z,39.20
2019-05-13T13:06:31.102Z,39.60
2019-05-13T13:08:50.854Z,39.30
2019-05-13T13:11:22.548Z,38.90
2019-05-13T13:13:58.615Z,37.20
2019-05-13T13:16:20.490Z,36.50
2019-05-13T13:18:51.905Z,35.90
2019-05-13T13:21:19.071Z,36.70
2019-05-13T13:23:47.474Z,38.30
2019-05-13T13:26:16.432Z,37.80
2019-05-13T13:28:47.867Z,37.90
2019-05-13T13:31:16.274Z,38.10
2019-05-13T13:33:45.926Z,37.40
2019-05-13T13:36:16.125Z,37.80
2019-05-13T13:38:44.796Z,37.60
2019-05-13T13:41:21.853Z,38.60
2019-05-13T13:43:43.345Z,38.80
2019-05-13T13:46:32.480Z,37.10
2019-05-13T13:48:43.884Z,35.90
2019-05-13T13:51:14.192Z,34.60
2019-05-13T13:53:44.586Z,36.20
2019-05-13T13:56:14.371Z,35.70
2019-05-13T14:01:19.958Z,35.60
2019-05-13T14:03:46.037Z,36.10
2019-05-13T14:06:12.931Z,35.10
2019-05-13T14:07:09.415Z,35.20
2019-05-13T14:08:41.712Z,36.00
2019-05-13T14:11:11.702Z,37.30
2019-05-13T14:13:42.492Z,35.90
2019-05-13T14:16:25.028Z,36.10
2019-05-13T14:18:41.950Z,35.80
2019-05-13T14:21:10.648Z,37.20
2019-05-13T14:23:39.457Z,35.60
2019-05-13T14:26:07.928Z,35.50
2019-05-13T14:28:36.331Z,35.90
2019-05-13T14:31:04.802Z,36.40
2019-05-13T14:33:35.527Z,36.50
2019-05-13T14:36:03.397Z,35.90
2019-05-13T14:38:32.751Z,35.00
2019-05-13T14:41:03.041Z,35.50
2019-05-13T14:43:31.831Z,34.60
2019-05-13T14:46:02.373Z,35.60
2019-05-13T14:48:32.998Z,34.30
2019-05-13T14:51:01.948Z,35.60
2019-05-13T14:53:32.111Z,34.50
2019-05-13T14:56:02.974Z,35.00
2019-05-13T14:58:32.598Z,35.00
2019-05-13T15:01:13.532Z,35.60
2019-05-13T15:03:32.701Z,36.30
2019-05-13T15:06:01.690Z,36.30
2019-05-13T15:08:32.515Z,36.30
2019-05-13T15:11:01.872Z,36.00
2019-05-13T15:13:31.897Z,35.40
2019-05-13T15:16:00.906Z,34.90
2019-05-13T15:18:29.324Z,35.40
2019-05-13T15:21:01.481Z,35.00
2019-05-13T15:23:31.460Z,34.30
2019-05-13T15:25:59.142Z,35.20
2019-05-13T15:28:27.530Z,34.00
2019-05-13T15:30:55.931Z,35.70
2019-05-13T15:33:24.341Z,34.60
2019-05-13T15:35:53.006Z,35.40
2019-05-13T15:38:21.412Z,34.20
2019-05-13T15:40:52.008Z,34.50
2019-05-13T15:43:22.227Z,35.10
2019-05-13T15:45:51.353Z,33.50
2019-05-13T15:48:21.577Z,34.00
2019-05-13T15:50:51.278Z,33.10
2019-05-13T15:53:21.438Z,33.70
2019-05-13T15:55:51.666Z,32.30
2019-05-13T15:58:37.719Z,32.20
2019-05-13T16:00:52.358Z,31.50
2019-05-13T16:03:20.530Z,31.80
2019-05-13T16:05:51.474Z,31.10
2019-05-13T16:08:19.076Z,30.80
2019-05-13T16:10:47.494Z,30.60
2019-05-13T16:13:15.887Z,30.50
2019-05-13T16:15:44.306Z,29.40
2019-05-13T16:18:12.686Z,29.30
2019-05-13T16:20:44.453Z,30.00
2019-05-13T16:23:12.363Z,30.50
2019-05-13T16:25:41.757Z,31.00
2019-05-13T16:28:10.279Z,31.10
2019-05-13T16:30:38.769Z,31.20
2019-05-13T16:33:07.160Z,30.70
2019-05-13T16:35:35.631Z,31.30
2019-05-13T16:38:04.090Z,32.10
2019-05-13T16:40:36.317Z,31.10
2019-05-13T16:43:02.643Z,31.00
2019-05-13T16:45:31.668Z,31.70
2019-05-13T16:48:03.856Z,31.50
2019-05-13T16:50:31.273Z,31.00
2019-05-13T16:53:01.948Z,32.10
2019-05-13T16:55:30.058Z,31.10
2019-05-13T16:57:58.461Z,31.20
2019-05-13T17:00:26.943Z,31.80
2019-05-13T17:02:55.330Z,31.60
2019-05-13T17:05:23.737Z,31.50
2019-05-13T17:07:52.134Z,31.30
2019-05-13T17:10:22.509Z,31.10
2019-05-13T17:12:52.371Z,30.10
2019-05-13T17:15:21.232Z,31.40
2019-05-13T17:17:51.475Z,29.60
2019-05-13T17:20:21.458Z,30.30
2019-05-13T17:22:51.303Z,30.60
2019-05-13T17:25:19.967Z,29.90
2019-05-13T17:27:48.367Z,30.10
2019-05-13T17:30:17.120Z,30.60
2019-05-13T17:32:45.516Z,30.00
2019-05-13T17:35:14.054Z,30.40
2019-05-13T17:37:42.441Z,30.00
2019-05-13T17:40:11.831Z,31.00
2019-05-13T17:42:41.467Z,30.80
2019-05-13T17:45:11.274Z,31.20
2019-05-13T17:47:41.845Z,30.90
2019-05-13T17:50:11.744Z,30.10
2019-05-13T17:52:40.375Z,30.90
2019-05-13T17:55:11.533Z,30.90
2019-05-13T17:57:41.221Z,31.20
2019-05-13T18:00:10.095Z,31.70
2019-05-13T18:02:38.503Z,31.80
2019-05-13T18:05:07.157Z,31.00
2019-05-13T18:07:35.552Z,31.80
2019-05-13T18:10:06.689Z,31.90
2019-05-13T18:12:35.090Z,32.10
2019-05-13T18:15:04.671Z,33.10
2019-05-13T18:17:33.131Z,33.70
2019-05-13T18:20:02.524Z,34.10
2019-05-13T18:22:31.311Z,34.80
2019-05-13T18:25:02.331Z,35.10
2019-05-13T18:27:32.205Z,36.30
2019-05-13T18:30:02.131Z,37.10
2019-05-13T18:32:31.987Z,37.70
2019-05-13T18:35:01.650Z,38.30
2019-05-13T18:37:31.570Z,38.40
2019-05-13T18:40:02.446Z,41.50
2019-05-13T18:42:31.700Z,43.40
2019-05-13T18:45:02.225Z,43.90
2019-05-13T18:47:31.656Z,45.30
2019-05-13T18:50:02.279Z,48.40
2019-05-13T18:52:31.368Z,50.80
2019-05-13T18:55:01.924Z,50.90
2019-05-13T18:57:31.887Z,51.10
2019-05-13T19:00:02.127Z,52.80
2019-05-13T19:02:32.071Z,54.60
2019-05-13T19:05:01.413Z,56.60
2019-05-13T19:07:31.613Z,57.70
2019-05-13T19:10:02.319Z,59.90
2019-05-13T19:12:31.438Z,62.30
2019-05-13T19:15:02.260Z,64.60
2019-05-13T19:17:32.231Z,64.00
2019-05-13T19:20:00.802Z,66.20
2019-05-13T19:22:29.215Z,68.20
2019-05-13T19:24:57.611Z,68.90
2019-05-13T19:27:26.028Z,70.60
2019-05-13T19:29:54.429Z,72.30
2019-05-13T19:32:22.851Z,74.30
2019-05-13T19:34:51.765Z,75.80
2019-05-13T19:37:22.467Z,76.60
2019-05-13T19:39:50.555Z,76.90
2019-05-13T19:42:18.953Z,79.60
2019-05-13T19:44:47.341Z,79.20
2019-05-13T19:47:15.749Z,80.90
2019-05-13T19:49:46.486Z,80.80
2019-05-13T19:52:14.303Z,75.10
2019-05-13T19:54:42.695Z,76.30
2019-05-13T19:57:11.916Z,77.90
2019-05-13T19:59:42.628Z,74.00
2019-05-13T20:02:12.250Z,73.70
2019-05-13T20:04:41.357Z,77.10
2019-05-13T20:07:11.828Z,74.70
2019-05-13T20:09:42.353Z,73.10
2019-05-13T20:12:11.237Z,74.60
2019-05-13T20:14:39.832Z,74.30
2019-05-13T20:17:08.222Z,69.20
2019-05-13T20:19:47.591Z,68.70
2019-05-13T20:22:06.749Z,68.90
2019-05-13T20:24:35.129Z,63.60
2019-05-13T20:27:03.548Z,61.30
2019-05-13T20:29:31.933Z,59.20
2019-05-13T20:32:01.329Z,60.20
2019-05-13T20:34:31.854Z,59.60
2019-05-13T20:37:02.086Z,58.20
2019-05-13T20:39:31.951Z,58.70
2019-05-13T20:42:01.616Z,58.00
2019-05-13T20:44:31.277Z,57.40
2019-05-13T20:47:01.601Z,57.10
2019-05-13T20:49:31.182Z,55.40
2019-05-13T20:52:00.006Z,54.80
2019-05-13T20:54:28.392Z,54.80
2019-05-13T20:56:56.803Z,53.80
2019-05-13T20:59:25.221Z,53.40
2019-05-13T21:01:53.625Z,53.80
2019-05-13T21:04:22.010Z,55.50
2019-05-13T21:06:51.578Z,53.60
2019-05-13T21:09:20.182Z,53.30
2019-05-13T21:11:48.579Z,52.80
2019-05-13T21:14:16.982Z,52.70
2019-05-13T21:16:45.390Z,52.80
2019-05-13T21:19:13.797Z,51.70
2019-05-13T21:21:42.208Z,51.80
2019-05-13T21:24:10.598Z,51.20
2019-05-13T21:26:39.002Z,51.50
2019-05-13T21:29:07.411Z,51.50
2019-05-13T21:31:35.819Z,51.50
2019-05-13T21:34:04.309Z,51.30
2019-05-13T21:36:32.706Z,51.20
2019-05-13T21:39:01.618Z,51.40
2019-05-13T21:41:31.644Z,51.50
2019-05-13T21:44:01.315Z,51.90
2019-05-13T21:46:29.841Z,51.90
2019-05-13T21:48:58.228Z,51.80
2019-05-13T21:51:26.651Z,52.50
2019-05-13T21:53:55.033Z,52.70
2019-05-13T21:56:23.440Z,52.60
2019-05-13T21:58:52.283Z,53.80
2019-05-13T22:01:23.186Z,54.40
2019-05-13T22:03:51.449Z,53.40
2019-05-13T22:06:21.762Z,54.80
2019-05-13T22:08:51.859Z,56.50
2019-05-13T22:11:22.255Z,54.90
2019-05-13T22:13:51.401Z,54.00
2019-05-13T22:16:21.477Z,55.40
2019-05-13T22:18:53.185Z,54.50
2019-05-13T22:21:21.606Z,54.80
2019-05-13T22:23:51.735Z,56.00
2019-05-13T22:26:22.203Z,56.90
2019-05-13T22:28:51.207Z,57.60
2019-05-13T22:31:22.077Z,58.00
2019-05-13T22:33:51.707Z,58.90
2019-05-13T22:36:21.308Z,59.30
2019-05-13T22:38:51.661Z,61.20
2019-05-13T22:41:22.051Z,62.40
2019-05-13T22:43:55.690Z,61.20
2019-05-13T22:46:21.392Z,62.60
2019-05-13T22:48:51.280Z,63.80
2019-05-13T22:51:21.296Z,64.60
2019-05-13T22:53:49.942Z,64.20
2019-05-13T22:56:18.403Z,64.60
2019-05-13T22:58:46.783Z,65.00
2019-05-13T23:01:15.215Z,66.10
2019-05-13T23:03:43.635Z,66.10
2019-05-13T23:06:12.215Z,67.70
2019-05-13T23:08:40.716Z,67.40
2019-05-13T23:11:09.094Z,66.70
2019-05-13T23:13:37.511Z,66.80
2019-05-13T23:16:05.885Z,67.80
2019-05-13T23:18:34.290Z,68.60
2019-05-13T23:21:02.688Z,73.00
2019-05-13T23:23:31.260Z,74.80
2019-05-13T23:25:59.770Z,76.30
2019-05-13T23:28:28.167Z,75.70
2019-05-13T23:30:56.557Z,77.40
2019-05-13T23:33:24.959Z,77.90
2019-05-13T23:35:53.368Z,80.50
2019-05-13T23:38:22.093Z,81.10
2019-05-13T23:40:51.618Z,82.30
2019-05-13T23:43:21.779Z,82.60
2019-05-13T23:45:51.118Z,84.80
2019-05-13T23:48:21.557Z,85.40
2019-05-13T23:50:52.097Z,86.00
2019-05-13T23:53:21.884Z,87.00
2019-05-13T23:55:52.094Z,87.90
2019-05-13T23:58:21.657Z,88.40
